Belle Isle Bank: Past 24 Hour Conditions

 

Port aux Basques

01:30 PM NDT 20 August 2014
This table is a summary of hourly weather conditions for the past 24 hours.
Date / Time
(NDT)
Wind(knots) Conditions Visibility(km) Pressure(kPa) Air tempC) Relative humidity(%) Dew pointC) Humidex
20 August 2014
13:30 WNW 18 Sunny 15 100.9 20 82 17 25
12:30 WNW 17 Sunny 15 100.8 21 81 17 26
11:30 WNW 13 Mostly Cloudy 15 100.7 20 86 17 *
10:30 W 2 Cloudy 15 100.7 18 90 16 *
9:30 NE 7 Cloudy 6 100.6 17 97 17 *
8:30 SW 8 Cloudy 8 100.5 17 98 17 *
7:30 SW 11 Cloudy 15 100.5 16 96 16 *
6:30 WSW 17 Cloudy 15 100.5 16 93 15 *
5:30 W 13 gust 20 Light Rain 5 100.5 15 96 15 *
4:30 N/A N/A N/A N/A N/A N/A N/A *
3:30 W 13 Mostly Cloudy 15 100.5 16 93 15 *
2:30 SW 10 Light Rain 15 100.5 17 96 16 *
1:30 SW 8 Light Rain 15 100.5 16 94 15 *
0:30 SW 6 Cloudy 15 100.5 17 97 16 *
19 August 2014
23:30 WNW 5 Light Rain 15 100.5 16 98 16 *
22:30 W 7 Partly Cloudy 15 100.5 17 93 16 *
21:30 WSW 12 gust 17 Mostly Cloudy 15 100.5 18 92 16 *
20:30 W 12 gust 17 Mostly Cloudy 15 100.4 17 91 16 *
19:30 W 12 Light Rain 10 100.4 18 95 17 *
18:30 W 9 Partly Cloudy 15 100.3 19 84 16 *
17:30 W 12 Mainly Sunny 15 100.3 19 86 16 *
16:30 W 15 Mostly Cloudy 15 100.2 19 89 17 *
15:30 WNW 12 gust 17 Cloudy 15 100.2 19 90 17 *
14:30 WNW 12 Rain 4 100.2 17 95 17 *
13:30 WNW 4 Light Rain 15 100.1 18 88 16 *
 
Map of Atlantic - Newfoundland marine weather areas Southwestern Grand Banks - 44138 Banquereau - 44139 Tail of the Bank - 44140 Nickerson Bank - 44251 Northeast Burgeo Bank - 44255 Blanc-Sablon Airport Cap Whittle Chevery Natashquan Airport Heath Point Miscou Island Grand Étang Ingonish Beach North Mountain St.Paul Island J.A. Douglas McCurdy Sydney Airport Charlottetown Airport East Point North Cape Argentia Bonavista Burgeo Cape Race Corner Brook Daniel's Harbour Englee Ferolle Point La Scie Port aux Basques Rocky Harbour Sagona Island St. Anthony Airport St. John's Int'l Airport St. Lawrence Stephenville Airport Twillingate Winterland Wreckhouse Cartwright Airport Mary's Harbour Grates Cove Pool's Island Marticot Island Long Pond Îles de la Madeleine Airport
Legend: buoyBuoy land stationLand Station